Temp: 18.2°C   Baro: 1015.7mb
  Wind: 2.0mph   Dir: WSW (250°)
  Rain: 0.6mm (0.0mm/hr)
  Solar: 621W/m2  Hum: 64%
 
Bath Spa Weather Station Historical Data
Daily Summary for August 2, 2020 Units:  Metric    English   Both
Daily Weekly Monthly Yearly Custom
  High: Low: Average:
Temperature: 17.3 °C 8.6 °C 14.1 °C
Dew Point: 15 °C 7.5 °C 11.8 °C
Humidity: 91% 73.2% 84%
Wind Speed: 15.6km/h 0km/h 4.7km/h
Wind Gust: 24.1km/h - -
Wind- - SSW
Pressure: 1019.9 hPa 1015.5 hPa -
Precipitation: 0.76 mm    
Historical Graphs
 
 
Tabular Data for August 2, 2020
Time Temperature Dew Point Pressure Wind Wind Speed Wind Gust Humidity Rainfall Rate (Hourly) solar
00:04 11.4 °C 9.4 °C 1019.9 hPa Calm     84.4% 0 mm 0 W/m2
00:09 11.4 °C 9.5 °C 1019.9 hPa Calm     85% 0 mm 0 W/m2
00:14 11.4 °C 9.5 °C 1019.9 hPa Calm     85% 0 mm 0 W/m2
00:19 11.4 °C 9.5 °C 1019.9 hPa Calm     85% 0 mm 0 W/m2
00:24 11.3 °C 9.4 °C 1019.9 hPa Calm     85% 0 mm 0 W/m2
00:29 11.3 °C 9.4 °C 1019.9 hPa Calm     85% 0 mm 0 W/m2
00:34 11.2 °C 9.3 °C 1019.9 hPa Calm     85% 0 mm 0 W/m2
00:39 11.2 °C 9.2 °C 1019.9 hPa Calm     85% 0 mm 0 W/m2
00:44 11.1 °C 9.3 °C 1019.9 hPa Calm     86% 0 mm 0 W/m2
00:49 11.1 °C 9.3 °C 1019.5 hPa Calm     86% 0 mm 0 W/m2
00:54 11.1 °C 9.3 °C 1019.5 hPa Calm     86% 0 mm 0 W/m2
00:59 11.1 °C 9.3 °C 1019.5 hPa Calm     86% 0 mm 0 W/m2
01:04 11.1 °C 9.3 °C 1019.5 hPa Calm     86% 0 mm 0 W/m2
01:09 11.1 °C 9.3 °C 1019.5 hPa Calm     86% 0 mm 0 W/m2
01:14 11 °C 9.2 °C 1019.5 hPa Calm     86% 0 mm 0 W/m2
01:19 11 °C 9.3 °C 1019.5 hPa Calm     86.6% 0 mm 0 W/m2
01:24 10.9 °C 9.2 °C 1019.5 hPa Calm     86.6% 0 mm 0 W/m2
01:29 10.9 °C 9.3 °C 1019.5 hPa Calm     87% 0 mm 0 W/m2
01:34 10.9 °C 9.3 °C 1019.5 hPa Calm     87% 0 mm 0 W/m2
01:39 10.8 °C 9.2 °C 1019.5 hPa Calm     87% 0 mm 0 W/m2
01:44 10.8 °C 9.2 °C 1019.5 hPa Calm     87% 0 mm 0 W/m2
01:49 10.8 °C 9.2 °C 1019.5 hPa Calm     87% 0 mm 0 W/m2
01:54 10.7 °C 9.2 °C 1019.5 hPa Calm     87% 0 mm 0 W/m2
01:59 10.7 °C 9.1 °C 1019.2 hPa Calm     87% 0 mm 0 W/m2
02:04 10.6 °C 9 °C 1019.2 hPa Calm     87% 0 mm 0 W/m2
02:09 10.6 °C 8.9 °C 1019.2 hPa Calm     87% 0 mm 0 W/m2
02:13 10.4 °C 8.8 °C 1019.2 hPa Calm     87% 0 mm 0 W/m2
02:19 10.4 °C 8.8 °C 1019.2 hPa Calm     87% 0 mm 0 W/m2
02:24 10.3 °C 8.8 °C 1019.2 hPa Calm     87.2% 0 mm 0 W/m2
02:29 10.3 °C 8.8 °C 1019.2 hPa Calm     87.4% 0 mm 0 W/m2
02:34 10.2 °C 8.7 °C 1019.2 hPa Calm     87.8% 0 mm 0 W/m2
02:39 10.2 °C 8.8 °C 1019.2 hPa Calm     88% 0 mm 0 W/m2
02:44 10.2 °C 8.8 °C 1019.2 hPa Calm     88% 0 mm 0 W/m2
02:49 10.1 °C 8.7 °C 1018.8 hPa Calm     88% 0 mm 0 W/m2
02:54 10.1 °C 8.7 °C 1018.8 hPa Calm     88% 0 mm 0 W/m2
02:59 10.1 °C 8.7 °C 1018.8 hPa Calm     88% 0 mm 0 W/m2
03:04 10.1 °C 8.7 °C 1018.8 hPa Calm     88% 0 mm 0 W/m2
03:09 10 °C 8.6 °C 1018.8 hPa Calm     88% 0 mm 0 W/m2
03:14 9.9 °C 8.6 °C 1018.8 hPa Calm     88% 0 mm 0 W/m2
03:19 9.9 °C 8.5 °C 1018.8 hPa Calm     88% 0 mm 0 W/m2
03:24 9.9 °C 8.5 °C 1018.8 hPa Calm     88% 0 mm 0 W/m2
03:29 9.8 °C 8.4 °C 1018.8 hPa Calm     88% 0 mm 0 W/m2
03:34 9.8 °C 8.4 °C 1018.8 hPa Calm     88% 0 mm 0 W/m2
03:39 9.8 °C 8.4 °C 1018.8 hPa Calm     88% 0 mm 0 W/m2
03:44 9.8 °C 8.3 °C 1018.8 hPa Calm     88% 0 mm 0 W/m2
03:49 9.7 °C 8.4 °C 1018.8 hPa Calm     88.8% 0 mm 0 W/m2
03:54 9.7 °C 8.5 °C 1018.8 hPa Calm     89% 0 mm 0 W/m2
03:59 9.7 °C 8.4 °C 1018.8 hPa Calm     89% 0 mm 0 W/m2
04:04 9.6 °C 8.3 °C 1018.8 hPa Calm     88.2% 0 mm 0 W/m2
04:09 9.6 °C 8.2 °C 1018.8 hPa Calm     88.2% 0 mm 0 W/m2
04:14 9.5 °C 8.3 °C 1018.8 hPa Calm     88.8% 0 mm 0 W/m2
04:19 9.4 °C 8.2 °C 1018.8 hPa Calm     89% 0 mm 0 W/m2
04:23 9.4 °C 8.2 °C 1018.8 hPa Calm     89% 0 mm 0 W/m2
04:29 9.4 °C 8.2 °C 1018.8 hPa Calm     89% 0 mm 0 W/m2
04:34 9.3 °C 8.2 °C 1018.8 hPa Calm     89% 0 mm 0 W/m2
04:39 9.2 °C 8.1 °C 1018.8 hPa Calm     89% 0 mm 0 W/m2
04:44 9.2 °C 8 °C 1018.8 hPa Calm     89% 0 mm 0 W/m2
04:49 9.2 °C 8 °C 1018.8 hPa Calm     89% 0 mm 0 W/m2
04:54 9.1 °C 7.9 °C 1018.8 hPa Calm     89% 0 mm 0 W/m2
04:59 9.1 °C 7.9 °C 1018.8 hPa Calm     89% 0 mm 0 W/m2
05:04 9 °C 7.8 °C 1018.8 hPa Calm     89% 0 mm 0 W/m2
05:09 9 °C 7.8 °C 1018.8 hPa Calm     89% 0 mm 0 W/m2
05:14 8.9 °C 7.7 °C 1018.8 hPa Calm     89% 0 mm 0 W/m2
05:19 8.9 °C 7.7 °C 1018.8 hPa Calm     89% 0 mm 0 W/m2
05:24 8.8 °C 7.6 °C 1018.8 hPa Calm     89% 0 mm 0 W/m2
05:29 8.8 °C 7.6 °C 1018.8 hPa Calm     89% 0 mm 0 W/m2
05:34 8.8 °C 7.6 °C 1018.8 hPa Calm     89% 0 mm 0 W/m2
05:39 8.7 °C 7.5 °C 1018.8 hPa Calm     89% 0 mm 0 W/m2
05:44 8.7 °C 7.6 °C 1018.8 hPa Calm     89.4% 0 mm 0 W/m2
05:49 8.7 °C 7.6 °C 1018.8 hPa Calm     90% 0 mm 0 W/m2
05:53 8.6 °C 7.5 °C 1018.8 hPa Calm     90% 0 mm 0 W/m2
05:59 8.6 °C 7.5 °C 1018.8 hPa Calm     89.8% 0 mm 0 W/m2
06:04 8.6 °C 7.5 °C 1018.8 hPa Calm     90% 0 mm 0 W/m2
06:09 8.6 °C 7.5 °C 1018.8 hPa Calm     90% 0 mm 0 W/m2
06:14 8.6 °C 7.5 °C 1018.8 hPa Calm     90% 0 mm 0 W/m2
06:19 8.6 °C 7.5 °C 1018.8 hPa Calm     90% 0 mm 0 W/m2
06:24 8.6 °C 7.5 °C 1018.8 hPa Calm     90% 0 mm 0 W/m2
06:29 8.6 °C 7.5 °C 1018.8 hPa Calm     90% 0 mm 0 W/m2
06:34 8.6 °C 7.5 °C 1018.8 hPa Calm     90% 0 mm 5 W/m2
06:39 8.6 °C 7.5 °C 1018.8 hPa Calm     90% 0 mm 11 W/m2
06:44 8.6 °C 7.5 °C 1018.8 hPa Calm     90% 0 mm 19 W/m2
06:49 8.6 °C 7.5 °C 1018.8 hPa Calm     90% 0 mm 25 W/m2
06:54 8.6 °C 7.5 °C 1018.8 hPa Calm     90% 0 mm 32 W/m2
06:59 8.6 °C 7.5 °C 1018.8 hPa Calm     90% 0 mm 37 W/m2
07:04 8.7 °C 7.6 °C 1018.8 hPa Calm     90% 0 mm 39 W/m2
07:09 8.7 °C 7.6 °C 1018.8 hPa Calm     90% 0 mm 39 W/m2
07:14 8.7 °C 7.6 °C 1018.8 hPa Calm     90% 0 mm 37 W/m2
07:19 8.8 °C 7.7 °C 1018.8 hPa Calm     90.2% 0 mm 37 W/m2
07:24 8.9 °C 8 °C 1018.8 hPa Calm     91% 0 mm 37 W/m2
07:29 9 °C 8.1 °C 1018.8 hPa Calm     91% 0 mm 46 W/m2
07:34 9.2 °C 8.3 °C 1018.8 hPa Calm     91% 0 mm 56 W/m2
07:39 9.5 °C 8.6 °C 1018.8 hPa Calm     91% 0 mm 67 W/m2
07:44 9.7 °C 8.8 °C 1018.8 hPa Calm     91% 0 mm 70 W/m2
07:49 9.8 °C 8.8 °C 1018.8 hPa Calm     90.6% 0 mm 84 W/m2
07:54 10 °C 8.9 °C 1018.8 hPa Calm     90.2% 0 mm 97 W/m2
07:59 10.3 °C 9.2 °C 1018.8 hPa Calm     90% 0 mm 60 W/m2
08:04 10.5 °C 9.4 °C 1018.8 hPa Calm     90% 0 mm 111 W/m2
08:09 10.8 °C 9.7 °C 1018.8 hPa Calm     89.4% 0 mm 127 W/m2
08:14 11.2 °C 9.8 °C 1018.8 hPa Calm     88.4% 0 mm 155 W/m2
08:19 11.8 °C 10.2 °C 1018.8 hPa West 1 km/h 3.2 km/h 87.2% 0 mm 186 W/m2
08:24 12.4 °C 10.6 °C 1018.8 hPa West 1 km/h 4.8 km/h 85.4% 0 mm 225 W/m2
08:29 13.2 °C 10.8 °C 1018.8 hPa West 1 km/h 4.8 km/h 83.2% 0 mm 202 W/m2
08:34 13.3 °C 10.6 °C 1018.8 hPa West 0.8 km/h 4.8 km/h 81% 0 mm 241 W/m2
08:39 13.3 °C 10.3 °C 1018.8 hPa West 1.3 km/h 4.8 km/h 79.8% 0 mm 251 W/m2
08:44 13.5 °C 10.4 °C 1018.8 hPa West 1.3 km/h 4.8 km/h 79% 0 mm 265 W/m2
08:48 13.7 °C 10.6 °C 1018.8 hPa West 2.7 km/h 4.8 km/h 78.8% 0 mm 274 W/m2
08:54 14.1 °C 10.7 °C 1018.8 hPa West 1 km/h 6.4 km/h 77.8% 0 mm 290 W/m2
08:59 14.2 °C 10.7 °C 1018.8 hPa South 0.3 km/h 4.8 km/h 77% 0 mm 302 W/m2
09:04 14.7 °C 11.2 °C 1018.8 hPa South 1.3 km/h 4.8 km/h 76.6% 0 mm 322 W/m2
09:09 15.2 °C 11.2 °C 1018.8 hPa South 1.9 km/h 4.8 km/h 74.8% 0 mm 341 W/m2
09:14 15.2 °C 11.3 °C 1018.8 hPa South 3.9 km/h 8 km/h 75% 0 mm 341 W/m2
09:19 15.2 °C 11.4 °C 1018.8 hPa SSE 5.1 km/h 11.3 km/h 75.8% 0 mm 350 W/m2
09:24 15.3 °C 11.6 °C 1018.5 hPa South 7.2 km/h 12.9 km/h 76% 0 mm 362 W/m2
09:34 15.6 °C 12.1 °C 1018.5 hPa South 4 km/h 14.5 km/h 76.8% 0 mm 406 W/m2
09:39 15.9 °C 12.3 °C 1018.5 hPa SSW 7.6 km/h 11.3 km/h 76.2% 0 mm 466 W/m2
09:44 15.8 °C 12.2 °C 1018.5 hPa South 8.9 km/h 16.1 km/h 76.2% 0 mm 422 W/m2
09:49 15.9 °C 12.4 °C 1018.5 hPa South 8.4 km/h 17.7 km/h 77% 0 mm 301 W/m2
09:54 16 °C 12.5 °C 1018.5 hPa SSW 10.9 km/h 24.1 km/h 77% 0 mm 591 W/m2
09:59 16.2 °C 12.5 °C 1018.5 hPa SSW 9.2 km/h 24.1 km/h 76% 0 mm 612 W/m2
10:04 16.6 °C 12.6 °C 1018.5 hPa South 13.5 km/h 24.1 km/h 75.2% 0 mm 615 W/m2
10:09 16.4 °C 12.4 °C 1018.5 hPa SSW 7.9 km/h 17.7 km/h 75.2% 0 mm 740 W/m2
10:14 16.8 °C 12.8 °C 1018.5 hPa SSW 6.4 km/h 20.9 km/h 74.6% 0 mm 714 W/m2
10:19 16.8 °C 12.6 °C 1018.5 hPa South 9.8 km/h 19.3 km/h 74% 0 mm 381 W/m2
10:23 16.7 °C 12.4 °C 1018.5 hPa South 15.6 km/h 20.9 km/h 74% 0 mm 334 W/m2
10:29 16.7 °C 12.4 °C 1018.5 hPa South 10 km/h 19.3 km/h 74% 0 mm 325 W/m2
10:34 16.7 °C 12.3 °C 1018.5 hPa South 11.3 km/h 20.9 km/h 73.2% 0 mm 274 W/m2
10:39 16.7 °C 12.3 °C 1018.5 hPa SSW 9.7 km/h 20.9 km/h 73.2% 0 mm 278 W/m2
10:44 16.7 °C 12.6 °C 1018.5 hPa South 7.7 km/h 17.7 km/h 74% 0 mm 269 W/m2
10:49 16.7 °C 12.5 °C 1018.5 hPa SW 9.3 km/h 19.3 km/h 74% 0 mm 253 W/m2
10:54 16.7 °C 12.6 °C 1018.5 hPa South 10.9 km/h 17.7 km/h 74% 0 mm 260 W/m2
10:59 16.7 °C 12.4 °C 1018.5 hPa South 13 km/h 20.9 km/h 74% 0 mm 227 W/m2
11:04 16.7 °C 12.4 °C 1018.5 hPa SSW 13.8 km/h 22.5 km/h 74% 0 mm 236 W/m2
11:09 16.6 °C 12.5 °C 1018.5 hPa SSW 9.3 km/h 22.5 km/h 74.8% 0 mm 281 W/m2
11:14 16.7 °C 12.7 °C 1018.5 hPa South 12.6 km/h 22.5 km/h 75% 0 mm 316 W/m2
11:19 16.7 °C 12.7 °C 1018.5 hPa SSW 8.2 km/h 16.1 km/h 75% 0 mm 322 W/m2
11:24 16.8 °C 12.8 °C 1018.5 hPa South 10 km/h 17.7 km/h 75% 0 mm 306 W/m2
11:28 16.8 °C 12.8 °C 1018.5 hPa SSW 10.5 km/h 20.9 km/h 75% 0 mm 301 W/m2
11:34 16.8 °C 12.8 °C 1018.5 hPa South 9.3 km/h 17.7 km/h 75% 0 mm 292 W/m2
11:39 16.9 °C 12.9 °C 1018.5 hPa South 10.8 km/h 20.9 km/h 75% 0 mm 306 W/m2
11:44 16.9 °C 13 °C 1018.5 hPa South 10.6 km/h 19.3 km/h 75.4% 0 mm 290 W/m2
11:49 16.9 °C 13 °C 1018.2 hPa SSW 9.2 km/h 17.7 km/h 75.6% 0 mm 271 W/m2
11:54 16.9 °C 13.1 °C 1018.2 hPa SSW 10.1 km/h 16.1 km/h 75.6% 0 mm 264 W/m2
11:59 16.9 °C 13 °C 1018.5 hPa SSW 10 km/h 20.9 km/h 75.2% 0 mm 246 W/m2
12:04 17 °C 13.2 °C 1018.2 hPa SSW 12.6 km/h 19.3 km/h 75.6% 0 mm 230 W/m2
12:09 16.9 °C 13.1 °C 1018.5 hPa SW 9.7 km/h 19.3 km/h 76% 0 mm 223 W/m2
12:14 16.8 °C 13.1 °C 1018.2 hPa SW 6 km/h 17.7 km/h 76.6% 0 mm 178 W/m2
12:19 16.8 °C 13.4 °C 1018.2 hPa SSW 10 km/h 16.1 km/h 77.6% 0 mm 178 W/m2
12:24 16.8 °C 13.2 °C 1018.2 hPa SSW 7.7 km/h 17.7 km/h 76.8% 0 mm 125 W/m2
12:28 16.9 °C 13.1 °C 1018.2 hPa SSW 8.4 km/h 16.1 km/h 76% 0 mm 132 W/m2
12:34 16.9 °C 13.1 °C 1018.5 hPa SSW 9 km/h 19.3 km/h 76% 0 mm 236 W/m2
12:39 16.9 °C 12.9 °C 1018.5 hPa SW 12.6 km/h 17.7 km/h 75% 0 mm 294 W/m2
12:44 16.9 °C 12.9 °C 1018.2 hPa SW 9.7 km/h 20.9 km/h 75% 0 mm 338 W/m2
12:49 17.2 °C 13.2 °C 1018.2 hPa SW 11.6 km/h 19.3 km/h 75% 0 mm 325 W/m2
12:54 17.3 °C 13.2 °C 1018.2 hPa SSW 8.4 km/h 20.9 km/h 74.8% 0 mm 339 W/m2
12:59 17.3 °C 13.1 °C 1018.2 hPa SSW 7.4 km/h 20.9 km/h 74% 0 mm 200 W/m2
13:04 17.3 °C 13.1 °C 1018.2 hPa SSW 8.7 km/h 20.9 km/h 74% 0 mm 174 W/m2
13:09 17.3 °C 13 °C 1018.2 hPa SSW 9.8 km/h 19.3 km/h 73.6% 0 mm 146 W/m2
13:14 17.2 °C 13 °C 1018.2 hPa SSW 6.9 km/h 19.3 km/h 74% 0 mm 188 W/m2
13:19 17.2 °C 13 °C 1018.2 hPa SSW 8.9 km/h 19.3 km/h 74% 0 mm 172 W/m2
13:24 17.2 °C 13 °C 1018.2 hPa SW 8.2 km/h 20.9 km/h 74% 0 mm 179 W/m2
13:29 17.2 °C 13 °C 1018.2 hPa SW 10.9 km/h 19.3 km/h 74% 0 mm 216 W/m2
13:34 17.1 °C 13 °C 1018.2 hPa SSW 6.6 km/h 14.5 km/h 74.6% 0 mm 216 W/m2
13:39 17.1 °C 13.3 °C 1018.2 hPa SSW 4.5 km/h 11.3 km/h 76% 0 mm 193 W/m2
13:44 17.2 °C 13.4 °C 1018.2 hPa SSW 5.5 km/h 11.3 km/h 76.2% 0 mm 174 W/m2
13:49 17.1 °C 13.3 °C 1018.2 hPa SSW 6.4 km/h 11.3 km/h 76% 0 mm 156 W/m2
13:54 16.9 °C 13.2 °C 1018.2 hPa SSW 8.5 km/h 12.9 km/h 76% 0 mm 186 W/m2
13:59 16.9 °C 13.2 °C 1018.2 hPa South 7.2 km/h 14.5 km/h 76.4% 0 mm 209 W/m2
14:04 16.8 °C 13.2 °C 1018.2 hPa SSW 4.3 km/h 16.1 km/h 77% 0 mm 229 W/m2
14:09 16.9 °C 13.5 °C 1018.2 hPa SSW 8.5 km/h 12.9 km/h 78% 0 mm 292 W/m2
14:14 16.9 °C 13.5 °C 1018.2 hPa SW 6.3 km/h 12.9 km/h 78.2% 0 mm 295 W/m2
14:19 16.9 °C 13.7 °C 1018.2 hPa SSW 6.9 km/h 14.5 km/h 79% 0 mm 250 W/m2
14:24 16.8 °C 13.6 °C 1018.2 hPa SW 6.1 km/h 17.7 km/h 78.8% 0 mm 255 W/m2
14:28 16.8 °C 13.6 °C 1017.8 hPa SSW 9 km/h 14.5 km/h 79% 0 mm 276 W/m2
14:34 16.8 °C 13.6 °C 1017.8 hPa South 7.4 km/h 14.5 km/h 79% 0 mm 257 W/m2
14:39 16.8 °C 13.6 °C 1017.8 hPa South 3.2 km/h 12.9 km/h 79% 0 mm 165 W/m2
14:44 16.8 °C 13.6 °C 1017.8 hPa South 7.7 km/h 12.9 km/h 78.8% 0 mm 125 W/m2
14:49 16.7 °C 13.3 °C 1017.8 hPa SSW 4.5 km/h 12.9 km/h 78% 0 mm 102 W/m2
14:54 16.7 °C 13.4 °C 1017.8 hPa SSW 3.5 km/h 11.3 km/h 78.8% 0.25 mm 109 W/m2
14:59 16.6 °C 13.3 °C 1017.8 hPa SSW 5.3 km/h 11.3 km/h 79% 0.51 mm 142 W/m2
15:04 16.4 °C 13.3 °C 1017.8 hPa SW 6 km/h 11.3 km/h 79.8% 0.51 mm 155 W/m2
15:09 16.3 °C 13.4 °C 1017.8 hPa SSW 4.7 km/h 9.7 km/h 80.4% 0.51 mm 156 W/m2
15:14 16.3 °C 13.5 °C 1017.8 hPa SW 3.9 km/h 12.9 km/h 81% 0.51 mm 134 W/m2
15:19 16.3 °C 13.4 °C 1017.8 hPa SW 7.1 km/h 16.1 km/h 81% 0.51 mm 109 W/m2
15:24 16.1 °C 13.3 °C 1017.8 hPa SW 8.7 km/h 14.5 km/h 81% 0.51 mm 95 W/m2
15:29 16.1 °C 13.5 °C 1017.8 hPa SW 2.6 km/h 16.1 km/h 82% 0.51 mm 118 W/m2
15:34 16 °C 13.6 °C 1017.5 hPa SSW 4 km/h 9.7 km/h 83% 0.51 mm 125 W/m2
15:39 15.9 °C 13.5 °C 1017.5 hPa SSW 5.6 km/h 11.3 km/h 83% 0.51 mm 137 W/m2
15:44 15.8 °C 13.6 °C 1017.5 hPa SSW 4.2 km/h 8 km/h 84% 0.51 mm 142 W/m2
15:49 15.8 °C 13.7 °C 1017.5 hPa SSW 4.2 km/h 12.9 km/h 84% 0.51 mm 127 W/m2
15:54 15.8 °C 13.6 °C 1017.5 hPa SW 3.4 km/h 6.4 km/h 84% 0.51 mm 137 W/m2
15:59 15.9 °C 13.7 °C 1017.2 hPa South 3.2 km/h 8 km/h 84% 0.51 mm 169 W/m2
16:04 15.9 °C 13.7 °C 1017.2 hPa SSW 5.8 km/h 12.9 km/h 84% 0.25 mm 178 W/m2
16:09 15.9 °C 13.7 °C 1017.2 hPa SSE 4.8 km/h 11.3 km/h 84% 0.25 mm 213 W/m2
16:14 15.9 °C 13.8 °C 1017.2 hPa South 4.7 km/h 9.7 km/h 84.2% 0.25 mm 206 W/m2
16:19 16.1 °C 14.1 °C 1017.2 hPa South 3.7 km/h 9.7 km/h 85% 0.25 mm 158 W/m2
16:23 16.2 °C 14.2 °C 1016.8 hPa South 5.1 km/h 11.3 km/h 85% 0.25 mm 102 W/m2
16:29 16.1 °C 14.1 °C 1016.8 hPa South 5.6 km/h 9.7 km/h 85% 0.25 mm 102 W/m2
16:34 16.1 °C 13.9 °C 1016.8 hPa South 10.9 km/h 24.1 km/h 84.4% 0 mm 123 W/m2
16:39 16 °C 13.8 °C 1016.8 hPa South 10 km/h 19.3 km/h 84% 0 mm 127 W/m2
16:44 16.1 °C 13.9 °C 1016.8 hPa South 7.4 km/h 16.1 km/h 84% 0 mm 128 W/m2
16:49 16.1 °C 13.9 °C 1016.8 hPa SSW 10 km/h 22.5 km/h 84% 0 mm 141 W/m2
16:54 16 °C 13.8 °C 1016.8 hPa South 12.6 km/h 17.7 km/h 84% 0 mm 130 W/m2
16:59 16.1 °C 13.9 °C 1016.8 hPa South 9.3 km/h 17.7 km/h 84% 0 mm 135 W/m2
17:04 16.2 °C 13.9 °C 1016.5 hPa SSW 7.7 km/h 14.5 km/h 84% 0 mm 137 W/m2
17:09 16.2 °C 13.9 °C 1016.5 hPa South 10 km/h 14.5 km/h 84% 0 mm 165 W/m2
17:14 16.2 °C 14 °C 1016.5 hPa South 9 km/h 19.3 km/h 84% 0 mm 190 W/m2
17:19 16.3 °C 14.1 °C 1016.5 hPa South 9.3 km/h 16.1 km/h 84% 0 mm 190 W/m2
17:24 16.3 °C 14.2 °C 1016.5 hPa South 9.3 km/h 16.1 km/h 84% 0 mm 155 W/m2
17:29 16.4 °C 14.2 °C 1016.5 hPa South 8.7 km/h 16.1 km/h 84% 0 mm 134 W/m2
17:34 16.4 °C 14.2 °C 1016.5 hPa South 5.8 km/h 14.5 km/h 84% 0 mm 121 W/m2
17:39 16.6 °C 14.4 °C 1016.5 hPa SSW 6.3 km/h 11.3 km/h 84% 0 mm 141 W/m2
17:44 16.6 °C 14.4 °C 1016.5 hPa South 7.2 km/h 12.9 km/h 84% 0 mm 144 W/m2
17:49 16.7 °C 14.4 °C 1016.5 hPa SSW 4.8 km/h 12.9 km/h 84% 0 mm 139 W/m2
17:54 16.7 °C 14.5 °C 1016.5 hPa SSW 7.7 km/h 19.3 km/h 84% 0 mm 134 W/m2
17:59 16.7 °C 14.3 °C 1016.1 hPa SSW 6.4 km/h 14.5 km/h 83.2% 0 mm 90 W/m2
18:04 16.7 °C 14.3 °C 1016.1 hPa SSW 9.5 km/h 20.9 km/h 83% 0 mm 109 W/m2
18:09 16.8 °C 14.4 °C 1016.1 hPa SSW 7.9 km/h 16.1 km/h 83% 0 mm 84 W/m2
18:14 16.8 °C 14.4 °C 1016.1 hPa SSW 7.4 km/h 16.1 km/h 83% 0 mm 79 W/m2
18:19 16.8 °C 14.4 °C 1016.1 hPa SSW 8.4 km/h 17.7 km/h 83% 0 mm 70 W/m2
18:24 16.8 °C 14.3 °C 1016.1 hPa SSW 9.2 km/h 17.7 km/h 82.8% 0 mm 91 W/m2
18:29 16.8 °C 14.2 °C 1016.1 hPa SW 8 km/h 19.3 km/h 82.2% 0 mm 113 W/m2
18:34 16.8 °C 14.2 °C 1016.1 hPa SW 8.5 km/h 16.1 km/h 82% 0 mm 83 W/m2
18:39 16.8 °C 14.2 °C 1016.1 hPa SW 7.6 km/h 14.5 km/h 82% 0 mm 74 W/m2
18:44 16.8 °C 14.2 °C 1016.1 hPa SW 6.6 km/h 12.9 km/h 81.8% 0 mm 77 W/m2
18:49 16.8 °C 14 °C 1016.1 hPa SW 6.1 km/h 12.9 km/h 81% 0 mm 42 W/m2
18:54 16.8 °C 14 °C 1016.1 hPa SW 6 km/h 14.5 km/h 81% 0 mm 42 W/m2
18:59 16.7 °C 13.9 °C 1016.1 hPa SW 7.9 km/h 14.5 km/h 81% 0 mm 33 W/m2
19:04 16.7 °C 13.9 °C 1016.1 hPa SW 8.7 km/h 16.1 km/h 81.2% 0 mm 33 W/m2
19:09 16.7 °C 14.1 °C 1016.1 hPa SW 6.4 km/h 14.5 km/h 82% 0 mm 26 W/m2
19:14 16.7 °C 14.1 °C 1016.1 hPa SSW 5.1 km/h 11.3 km/h 82% 0 mm 25 W/m2
19:19 16.6 °C 14 °C 1016.1 hPa SW 6.4 km/h 12.9 km/h 82% 0 mm 21 W/m2
19:24 16.6 °C 14 °C 1015.8 hPa South 7.2 km/h 17.7 km/h 82% 0 mm 25 W/m2
19:29 16.6 °C 14.1 °C 1015.8 hPa SSW 6.4 km/h 12.9 km/h 82.6% 0 mm 21 W/m2
19:34 16.6 °C 14.2 °C 1016.1 hPa SW 3.4 km/h 11.3 km/h 83% 0 mm 12 W/m2
19:39 16.5 °C 14.1 °C 1016.1 hPa SSW 6.3 km/h 14.5 km/h 83% 0 mm 5 W/m2
19:44 16.5 °C 14.1 °C 1016.1 hPa SSW 3.2 km/h 9.7 km/h 83% 0 mm 0 W/m2
19:49 16.5 °C 14.2 °C 1016.1 hPa SSW 1.9 km/h 8 km/h 83.8% 0 mm 0 W/m2
19:54 16.4 °C 14.2 °C 1016.1 hPa SW 6.6 km/h 16.1 km/h 84% 0 mm 0 W/m2
19:59 16.4 °C 14.2 °C 1016.1 hPa SW 6.6 km/h 9.7 km/h 84% 0 mm 0 W/m2
20:04 16.4 °C 14.2 °C 1016.1 hPa SW 4.8 km/h 11.3 km/h 84% 0 mm 0 W/m2
20:09 16.4 °C 14.2 °C 1016.1 hPa SSW 3.2 km/h 9.7 km/h 84% 0 mm 0 W/m2
20:14 16.5 °C 14.3 °C 1016.1 hPa SW 3.2 km/h 9.7 km/h 84% 0 mm 0 W/m2
20:19 16.4 °C 14.3 °C 1016.1 hPa SW 5.1 km/h 11.3 km/h 84.2% 0 mm 0 W/m2
20:24 16.4 °C 14.4 °C 1016.1 hPa SSW 5.3 km/h 11.3 km/h 84.8% 0 mm 0 W/m2
20:29 16.4 °C 14.4 °C 1016.1 hPa WSW 7.7 km/h 11.3 km/h 85% 0 mm 0 W/m2
20:34 16.4 °C 14.4 °C 1016.5 hPa WSW 5.1 km/h 11.3 km/h 85% 0 mm 0 W/m2
20:39 16.4 °C 14.4 °C 1016.5 hPa WSW 6 km/h 11.3 km/h 85% 0 mm 0 W/m2
20:44 16.4 °C 14.4 °C 1016.1 hPa WSW 5.8 km/h 11.3 km/h 85% 0 mm 0 W/m2
20:49 16.4 °C 14.4 °C 1016.1 hPa WSW 7.2 km/h 14.5 km/h 85% 0 mm 0 W/m2
20:53 16.4 °C 14.4 °C 1016.1 hPa SW 9.2 km/h 19.3 km/h 85% 0 mm 0 W/m2
20:59 16.5 °C 14.5 °C 1016.1 hPa SW 8.5 km/h 19.3 km/h 85% 0 mm 0 W/m2
21:04 16.5 °C 14.5 °C 1016.1 hPa SW 6.9 km/h 17.7 km/h 85% 0 mm 0 W/m2
21:09 16.6 °C 14.6 °C 1016.1 hPa SW 5.3 km/h 16.1 km/h 85% 0 mm 0 W/m2
21:14 16.5 °C 14.5 °C 1016.1 hPa SSW 6.4 km/h 16.1 km/h 85% 0 mm 0 W/m2
21:19 16.5 °C 14.5 °C 1016.1 hPa SW 10.3 km/h 17.7 km/h 85% 0 mm 0 W/m2
21:24 16.5 °C 14.6 °C 1016.1 hPa SW 7.2 km/h 14.5 km/h 85.8% 0 mm 0 W/m2
21:29 16.5 °C 14.6 °C 1016.1 hPa SW 10 km/h 20.9 km/h 86% 0 mm 0 W/m2
21:34 16.5 °C 14.6 °C 1016.1 hPa SW 11.4 km/h 24.1 km/h 86% 0 mm 0 W/m2
21:39 16.4 °C 14.5 °C 1016.1 hPa WSW 8.4 km/h 22.5 km/h 86% 0 mm 0 W/m2
21:44 16.4 °C 14.7 °C 1016.1 hPa SSW 9.2 km/h 22.5 km/h 86.8% 0 mm 0 W/m2
21:49 16.4 °C 14.7 °C 1016.1 hPa SW 9.2 km/h 20.9 km/h 86.8% 0 mm 0 W/m2
21:54 16.4 °C 14.7 °C 1016.1 hPa SW 11.9 km/h 22.5 km/h 86.8% 0 mm 0 W/m2
21:59 16.4 °C 14.7 °C 1016.1 hPa SW 5.8 km/h 14.5 km/h 86.8% 0 mm 0 W/m2
22:04 16.4 °C 14.7 °C 1016.1 hPa SSW 6.4 km/h 12.9 km/h 86.6% 0 mm 0 W/m2
22:09 16.4 °C 14.7 °C 1015.8 hPa SW 4.8 km/h 12.9 km/h 87% 0 mm 0 W/m2
22:14 16.4 °C 14.7 °C 1015.8 hPa SW 5.1 km/h 14.5 km/h 87% 0 mm 0 W/m2
22:19 16.4 °C 14.7 °C 1015.8 hPa SW 7.1 km/h 14.5 km/h 87% 0 mm 0 W/m2
22:24 16.4 °C 14.7 °C 1015.8 hPa SW 7.7 km/h 16.1 km/h 87% 0 mm 0 W/m2
22:29 16.4 °C 14.7 °C 1015.8 hPa SW 8.2 km/h 16.1 km/h 87% 0 mm 0 W/m2
22:34 16.4 °C 14.7 °C 1015.8 hPa South 10 km/h 16.1 km/h 87% 0 mm 0 W/m2
22:39 16.4 °C 14.7 °C 1015.8 hPa SW 8.4 km/h 16.1 km/h 87% 0 mm 0 W/m2
22:44 16.4 °C 14.7 °C 1015.8 hPa WSW 7.4 km/h 24.1 km/h 87% 0 mm 0 W/m2
22:49 16.4 °C 14.7 °C 1015.8 hPa SW 6.9 km/h 12.9 km/h 87% 0 mm 0 W/m2
22:54 16.4 °C 14.7 °C 1015.8 hPa SW 8 km/h 17.7 km/h 87% 0 mm 0 W/m2
22:59 16.4 °C 14.7 °C 1015.8 hPa SW 8.7 km/h 14.5 km/h 87% 0 mm 0 W/m2
23:04 16.4 °C 14.7 °C 1015.5 hPa SW 7.2 km/h 17.7 km/h 87% 0 mm 0 W/m2
23:09 16.4 °C 14.7 °C 1015.8 hPa WSW 7.7 km/h 14.5 km/h 87% 0 mm 0 W/m2
23:14 16.4 °C 14.7 °C 1015.8 hPa SW 9.2 km/h 19.3 km/h 87% 0 mm 0 W/m2
23:19 16.4 °C 14.7 °C 1015.5 hPa SW 4 km/h 12.9 km/h 87% 0 mm 0 W/m2
23:24 16.4 °C 14.9 °C 1015.8 hPa WSW 10.5 km/h 24.1 km/h 87.8% 0 mm 0 W/m2
23:29 16.4 °C 14.9 °C 1015.5 hPa SW 9 km/h 20.9 km/h 88% 0 mm 0 W/m2
23:34 16.4 °C 14.9 °C 1015.5 hPa SSW 4.7 km/h 14.5 km/h 88% 0 mm 0 W/m2
23:39 16.4 °C 14.9 °C 1015.5 hPa SSW 7.7 km/h 16.1 km/h 88% 0 mm 0 W/m2
23:44 16.4 °C 14.9 °C 1015.5 hPa WSW 3.5 km/h 17.7 km/h 88% 0 mm 0 W/m2
23:49 16.4 °C 14.9 °C 1015.5 hPa SW 5.3 km/h 17.7 km/h 88% 0 mm 0 W/m2
23:54 16.4 °C 14.9 °C 1015.5 hPa SW 4.3 km/h 8 km/h 88% 0 mm 0 W/m2
23:59 16.5 °C 15 °C 1015.5 hPa SW 9.7 km/h 16.1 km/h 88% 0.25 mm 0 W/m2
Bath Spa Weather
Compliments of Weather Underground - 2 mb